Athens, Greece
Current Conditions -  °F | °C
As of 6:50 AM on Monday 22 Dec 2014 (Local Time) from LGEL Reporting Station
Scattered Clouds Scattered Clouds  
Wind Chill: 43°   Ceiling: Unl
Heat Index: 48°   Visibility: 6mi
Dew Point: 32°   Wind: 12mph
Humidity: 54%   Direction: 330°NNW
Pressure: 30.33"   Gusts: NA
Location:  37.98°N, 23.73°E
Report Text: LGEL 220350Z 33010KT 9999 FEW025 SCT070 09/00 Q1027
Loading
Personal Weather Stations






























Interactive Weather Map New forecast layout! Learn more

10-Day Weather Forecast

Advertisements
Track Severe Weather on mobile